createdAt,value
2023-01-19T00:00:56.879Z,99.90
2023-01-19T00:06:05.887Z,99.90
2023-01-19T00:11:08.566Z,99.90
2023-01-19T00:16:11.499Z,99.90
2023-01-19T00:21:15.774Z,99.90
2023-01-19T00:26:18.837Z,99.90
2023-01-19T00:31:21.793Z,99.90
2023-01-19T00:36:25.987Z,99.90
2023-01-19T00:41:42.684Z,99.90
2023-01-19T00:46:45.336Z,99.90
2023-01-19T00:51:49.413Z,99.90
2023-01-19T00:56:52.108Z,99.90
2023-01-19T01:01:54.973Z,99.90
2023-01-19T01:06:59.116Z,99.90
2023-01-19T01:12:01.758Z,99.90
2023-01-19T01:17:04.463Z,99.90
2023-01-19T01:22:09.407Z,99.90
2023-01-19T01:27:12.162Z,99.90
2023-01-19T01:32:14.935Z,99.90
2023-01-19T01:37:18.887Z,99.90
2023-01-19T01:42:27.459Z,99.90
2023-01-19T01:47:33.921Z,99.90
2023-01-19T01:52:44.559Z,99.90
2023-01-19T01:58:08.618Z,99.90
2023-01-19T02:03:11.505Z,99.90
2023-01-19T02:08:37.592Z,99.90
2023-01-19T02:13:43.806Z,99.90
2023-01-19T02:18:47.267Z,99.90
2023-01-19T02:23:53.279Z,99.90
2023-01-19T02:28:59.130Z,99.90
2023-01-19T02:34:03.421Z,99.90
2023-01-19T02:39:09.433Z,99.90
2023-01-19T02:44:13.501Z,99.90
2023-01-19T02:49:16.280Z,99.90
2023-01-19T02:54:32.793Z,99.90
2023-01-19T02:59:48.880Z,99.90
2023-01-19T03:05:01.149Z,99.90
2023-01-19T03:10:08.989Z,99.90
2023-01-19T03:15:19.812Z,99.90
2023-01-19T03:20:25.481Z,99.90
2023-01-19T03:25:32.894Z,99.90
2023-01-19T03:30:40.136Z,99.90
2023-01-19T03:35:47.079Z,99.90
2023-01-19T03:40:53.324Z,99.90
2023-01-19T03:45:57.686Z,99.90
2023-01-19T03:51:04.294Z,99.90
2023-01-19T03:56:15.815Z,99.90
2023-01-19T04:01:22.730Z,99.90
2023-01-19T04:06:25.656Z,99.90
2023-01-19T04:11:30.450Z,99.90
2023-01-19T04:16:33.255Z,99.90
2023-01-19T04:21:35.978Z,99.90
2023-01-19T04:26:39.981Z,99.90
2023-01-19T04:31:45.592Z,99.90
2023-01-19T04:36:51.026Z,99.90
2023-01-19T04:41:56.239Z,99.90
2023-01-19T04:46:58.871Z,99.90
2023-01-19T04:52:01.914Z,99.90
2023-01-19T04:57:05.965Z,99.90
2023-01-19T05:02:08.707Z,99.90
2023-01-19T05:07:11.388Z,99.90
2023-01-19T05:12:15.405Z,99.90
2023-01-19T05:17:18.050Z,99.90
2023-01-19T05:22:20.780Z,99.90
2023-01-19T05:27:24.845Z,99.90
2023-01-19T05:32:27.485Z,99.90
2023-01-19T05:37:31.700Z,99.90
2023-01-19T05:42:35.719Z,99.90
2023-01-19T05:47:39.834Z,99.90
2023-01-19T05:52:43.820Z,99.90
2023-01-19T05:57:47.836Z,99.90
2023-01-19T06:02:50.683Z,99.90
2023-01-19T06:07:53.523Z,99.90
2023-01-19T06:12:57.490Z,99.90
2023-01-19T06:18:00.187Z,99.90
2023-01-19T06:23:03.567Z,99.90
2023-01-19T06:28:07.683Z,99.90
2023-01-19T06:33:10.346Z,99.90
2023-01-19T06:38:14.376Z,99.90
2023-01-19T06:43:20.254Z,99.90
2023-01-19T06:48:23.341Z,99.90
2023-01-19T06:53:27.854Z,99.90
2023-01-19T06:58:32.101Z,99.90
2023-01-19T07:03:36.674Z,99.90
2023-01-19T07:08:39.957Z,99.90
2023-01-19T07:13:44.697Z,99.90
2023-01-19T07:18:49.937Z,99.90
2023-01-19T07:23:53.390Z,99.90
2023-01-19T07:28:57.365Z,99.90
2023-01-19T07:34:00.278Z,99.90
2023-01-19T07:39:02.939Z,99.90
2023-01-19T07:44:07.417Z,99.90
2023-01-19T07:49:10.707Z,99.90
2023-01-19T07:54:13.756Z,99.90
2023-01-19T07:59:17.706Z,99.90
2023-01-19T08:04:20.397Z,1.00
2023-01-19T08:09:24.312Z,1.00
2023-01-19T08:14:28.324Z,1.00
2023-01-19T08:19:31.263Z,1.00
2023-01-19T08:24:33.901Z,1.00
2023-01-19T08:29:38.285Z,1.00
2023-01-19T08:34:41.925Z,1.00
2023-01-19T08:39:44.543Z,88.60
2023-01-19T08:44:57.511Z,99.90
2023-01-19T08:50:00.617Z,99.90
2023-01-19T08:55:03.309Z,1.00
2023-01-19T09:00:11.012Z,1.00
2023-01-19T09:05:13.743Z,1.00
2023-01-19T09:10:17.369Z,1.00
2023-01-19T09:15:21.327Z,1.00
2023-01-19T09:20:24.098Z,1.00
2023-01-19T09:25:27.300Z,1.00
2023-01-19T09:30:32.560Z,1.00
2023-01-19T09:35:36.242Z,1.00
2023-01-19T09:40:44.022Z,1.00
2023-01-19T09:45:52.257Z,1.00
2023-01-19T09:50:57.298Z,1.00
2023-01-19T09:56:00.155Z,99.90
2023-01-19T10:01:13.849Z,99.90
2023-01-19T10:07:04.399Z,99.90
2023-01-19T10:12:18.442Z,99.90
2023-01-19T10:17:36.171Z,99.90
2023-01-19T10:22:39.044Z,99.90
2023-01-19T10:27:42.962Z,99.90
2023-01-19T10:32:46.942Z,99.90
2023-01-19T10:37:50.180Z,99.90
2023-01-19T10:42:53.034Z,99.90
2023-01-19T10:48:00.168Z,99.90
2023-01-19T10:53:05.771Z,99.90
2023-01-19T10:58:28.271Z,99.90
2023-01-19T11:03:33.201Z,99.90
2023-01-19T11:08:35.903Z,99.90
2023-01-19T11:13:39.451Z,99.90
2023-01-19T11:18:45.552Z,99.90
2023-01-19T11:23:51.029Z,99.90
2023-01-19T11:28:56.041Z,99.90
2023-01-19T11:34:01.568Z,99.90
2023-01-19T11:39:23.572Z,99.90
2023-01-19T11:44:31.120Z,99.90
2023-01-19T11:49:45.153Z,99.90
2023-01-19T11:54:54.607Z,99.90
2023-01-19T12:00:03.323Z,99.90
2023-01-19T12:05:13.920Z,99.90
2023-01-19T12:10:25.175Z,99.90
2023-01-19T12:15:33.904Z,99.90
2023-01-19T12:20:41.194Z,99.90
2023-01-19T12:25:54.979Z,99.90
2023-01-19T12:30:59.349Z,99.90
2023-01-19T12:36:06.466Z,99.90
2023-01-19T12:41:30.461Z,99.90
2023-01-19T12:46:33.244Z,99.90
2023-01-19T12:51:37.440Z,99.90
2023-01-19T12:56:40.151Z,99.90
2023-01-19T13:01:43.021Z,99.90
2023-01-19T13:07:13.544Z,99.90
2023-01-19T13:12:26.064Z,99.90
2023-01-19T13:17:34.063Z,99.90
2023-01-19T13:23:16.122Z,99.90
2023-01-19T13:28:20.843Z,99.90
2023-01-19T13:33:25.646Z,99.90
2023-01-19T13:38:32.884Z,99.90
2023-01-19T13:43:38.283Z,99.90
2023-01-19T13:48:41.558Z,99.90
2023-01-19T13:53:55.694Z,99.90
2023-01-19T13:59:11.871Z,99.90
2023-01-19T14:04:26.675Z,99.90
2023-01-19T14:09:30.805Z,1.00
2023-01-19T14:14:33.649Z,1.00
2023-01-19T14:19:49.585Z,1.00
2023-01-19T14:24:53.663Z,1.00
2023-01-19T14:30:19.836Z,1.00
2023-01-19T14:35:25.795Z,7.60
2023-01-19T14:40:31.343Z,99.90
2023-01-19T14:45:37.879Z,99.90
2023-01-19T14:50:57.553Z,99.90
2023-01-19T14:56:07.597Z,1.00
2023-01-19T15:01:10.462Z,1.00
2023-01-19T15:06:15.825Z,1.00
2023-01-19T15:11:23.791Z,1.00
2023-01-19T15:16:28.596Z,1.00
2023-01-19T15:21:31.483Z,49.80
2023-01-19T15:26:36.564Z,1.00
2023-01-19T15:31:39.328Z,1.00
2023-01-19T15:36:42.596Z,1.00
2023-01-19T15:41:46.784Z,1.00
2023-01-19T15:46:49.798Z,1.00
2023-01-19T15:51:52.728Z,92.60
2023-01-19T15:56:56.733Z,1.00
2023-01-19T16:01:59.606Z,1.00
2023-01-19T16:07:02.406Z,99.90
2023-01-19T16:12:06.848Z,99.90
2023-01-19T16:17:09.489Z,99.10
2023-01-19T16:22:12.415Z,1.00
2023-01-19T16:27:16.382Z,1.00
2023-01-19T16:32:19.519Z,99.90
2023-01-19T16:37:22.192Z,1.00
2023-01-19T16:42:26.719Z,1.00
2023-01-19T16:47:29.371Z,1.00
2023-01-19T16:52:32.005Z,1.00
2023-01-19T16:57:36.281Z,1.00
2023-01-19T17:02:38.953Z,1.00
2023-01-19T17:08:29.715Z,1.00
2023-01-19T17:14:49.456Z,1.00
2023-01-19T17:20:02.055Z,1.00
2023-01-19T17:25:10.228Z,1.00
2023-01-19T17:30:30.097Z,1.00
2023-01-19T17:35:37.035Z,1.00
2023-01-19T17:40:39.957Z,1.00
2023-01-19T17:45:42.718Z,1.00
2023-01-19T17:50:46.937Z,1.00
2023-01-19T17:55:49.571Z,99.90
2023-01-19T18:00:52.208Z,1.00
2023-01-19T18:05:56.819Z,1.00
2023-01-19T18:11:01.548Z,99.90
2023-01-19T18:16:07.240Z,1.00
2023-01-19T18:21:16.461Z,99.90
2023-01-19T18:26:21.375Z,1.00
2023-01-19T18:31:24.806Z,99.90
2023-01-19T18:36:31.834Z,99.90
2023-01-19T18:41:36.991Z,1.00
2023-01-19T18:46:39.987Z,99.90
2023-01-19T18:51:44.098Z,99.90
2023-01-19T18:56:46.786Z,99.90
2023-01-19T19:01:49.539Z,1.00
2023-01-19T19:06:53.648Z,1.00
2023-01-19T19:11:56.355Z,1.00
2023-01-19T19:16:58.987Z,1.00
2023-01-19T19:22:03.984Z,1.00
2023-01-19T19:27:06.619Z,99.90
2023-01-19T19:32:09.244Z,99.90
2023-01-19T19:37:13.170Z,1.00
2023-01-19T19:42:16.277Z,77.10
2023-01-19T19:47:18.958Z,1.00
2023-01-19T19:52:23.039Z,1.00
2023-01-19T19:57:25.740Z,1.00
2023-01-19T20:02:28.535Z,1.00
2023-01-19T20:07:32.702Z,1.00
2023-01-19T20:12:35.379Z,1.00
2023-01-19T20:17:38.036Z,1.00
2023-01-19T20:22:42.047Z,99.90
2023-01-19T20:27:45.081Z,99.90
2023-01-19T20:32:47.808Z,99.90
2023-01-19T20:37:51.764Z,1.00
2023-01-19T20:42:54.604Z,99.90
2023-01-19T20:47:57.353Z,99.90
2023-01-19T20:53:01.317Z,1.00
2023-01-19T20:58:04.368Z,1.00
2023-01-19T21:03:07.242Z,1.00
2023-01-19T21:08:13.283Z,1.00
2023-01-19T21:13:15.906Z,1.00
2023-01-19T21:18:18.658Z,1.00
2023-01-19T21:23:22.605Z,1.00
2023-01-19T21:28:28.245Z,1.00
2023-01-19T21:33:33.019Z,1.00
2023-01-19T21:38:38.516Z,1.00
2023-01-19T21:43:43.087Z,1.00
2023-01-19T21:48:46.672Z,1.00
2023-01-19T21:53:52.275Z,99.90
2023-01-19T21:58:55.706Z,94.20
2023-01-19T22:03:59.273Z,99.90
2023-01-19T22:09:03.291Z,1.00
2023-01-19T22:14:05.991Z,1.00
2023-01-19T22:19:12.865Z,1.00
2023-01-19T22:24:16.852Z,1.00
2023-01-19T22:29:19.493Z,1.00
2023-01-19T22:34:22.118Z,1.00
2023-01-19T22:39:26.202Z,1.00
2023-01-19T22:44:28.980Z,1.00
2023-01-19T22:49:32.713Z,1.00
2023-01-19T22:54:36.812Z,1.00
2023-01-19T22:59:39.471Z,1.00
2023-01-19T23:04:43.783Z,1.00
2023-01-19T23:09:47.791Z,1.00
2023-01-19T23:14:50.446Z,1.00
2023-01-19T23:19:55.566Z,1.00
2023-01-19T23:24:59.589Z,1.00
2023-01-19T23:30:02.413Z,1.00
2023-01-19T23:35:05.328Z,1.00
2023-01-19T23:40:10.899Z,1.00
2023-01-19T23:45:14.125Z,1.00
2023-01-19T23:50:17.221Z,1.00
2023-01-19T23:55:21.188Z,1.00
